sensor_id;sensor_type;location;lat;lon;timestamp;temperature;humidity
14283;DHT22;7225;59.282;18.344;2022-10-31T00:01:36;6.40;99.90
14283;DHT22;7225;59.282;18.344;2022-10-31T00:04:05;6.40;99.90
14283;DHT22;7225;59.282;18.344;2022-10-31T00:06:33;6.40;99.90
14283;DHT22;7225;59.282;18.344;2022-10-31T00:09:03;6.40;99.90
14283;DHT22;7225;59.282;18.344;2022-10-31T00:11:30;6.40;99.90
14283;DHT22;7225;59.282;18.344;2022-10-31T00:13:58;6.40;99.90
14283;DHT22;7225;59.282;18.344;2022-10-31T00:16:27;6.40;99.90
14283;DHT22;7225;59.282;18.344;2022-10-31T00:18:58;6.30;99.90
14283;DHT22;7225;59.282;18.344;2022-10-31T00:21:28;6.20;99.90
14283;DHT22;7225;59.282;18.344;2022-10-31T00:23:57;6.20;99.90
14283;DHT22;7225;59.282;18.344;2022-10-31T00:26:30;6.30;99.90
14283;DHT22;7225;59.282;18.344;2022-10-31T00:28:59;6.20;99.90
14283;DHT22;7225;59.282;18.344;2022-10-31T00:31:29;6.20;99.90
14283;DHT22;7225;59.282;18.344;2022-10-31T00:33:58;6.20;99.90
14283;DHT22;7225;59.282;18.344;2022-10-31T00:36:26;6.20;99.90
14283;DHT22;7225;59.282;18.344;2022-10-31T00:38:54;6.20;99.90
14283;DHT22;7225;59.282;18.344;2022-10-31T00:41:21;6.20;99.90
14283;DHT22;7225;59.282;18.344;2022-10-31T00:43:49;6.10;99.90
14283;DHT22;7225;59.282;18.344;2022-10-31T00:46:19;6.10;99.90
14283;DHT22;7225;59.282;18.344;2022-10-31T00:48:46;6.20;99.90
14283;DHT22;7225;59.282;18.344;2022-10-31T00:51:14;6.20;99.90
14283;DHT22;7225;59.282;18.344;2022-10-31T00:53:41;6.10;99.90
14283;DHT22;7225;59.282;18.344;2022-10-31T00:56:10;6.10;99.90
14283;DHT22;7225;59.282;18.344;2022-10-31T00:58:37;6.00;99.90
14283;DHT22;7225;59.282;18.344;2022-10-31T01:01:05;6.10;99.90
14283;DHT22;7225;59.282;18.344;2022-10-31T01:03:35;6.00;99.90
14283;DHT22;7225;59.282;18.344;2022-10-31T01:06:08;6.00;99.90
14283;DHT22;7225;59.282;18.344;2022-10-31T01:08:37;6.00;99.90
14283;DHT22;7225;59.282;18.344;2022-10-31T01:11:11;6.00;99.90
14283;DHT22;7225;59.282;18.344;2022-10-31T01:13:38;5.90;99.90
14283;DHT22;7225;59.282;18.344;2022-10-31T01:16:10;5.80;99.90
14283;DHT22;7225;59.282;18.344;2022-10-31T01:18:39;5.80;99.90
14283;DHT22;7225;59.282;18.344;2022-10-31T01:21:16;5.80;99.90
14283;DHT22;7225;59.282;18.344;2022-10-31T01:23:44;5.80;99.90
14283;DHT22;7225;59.282;18.344;2022-10-31T01:26:32;5.70;99.90
14283;DHT22;7225;59.282;18.344;2022-10-31T01:29:05;5.70;99.90
14283;DHT22;7225;59.282;18.344;2022-10-31T01:31:38;5.60;99.90
14283;DHT22;7225;59.282;18.344;2022-10-31T01:34:06;5.60;99.90
14283;DHT22;7225;59.282;18.344;2022-10-31T01:36:37;5.60;99.90
14283;DHT22;7225;59.282;18.344;2022-10-31T01:39:06;5.50;99.90
14283;DHT22;7225;59.282;18.344;2022-10-31T01:41:38;5.50;99.90
14283;DHT22;7225;59.282;18.344;2022-10-31T01:47:05;5.50;99.90
14283;DHT22;7225;59.282;18.344;2022-10-31T01:49:39;5.40;99.90
14283;DHT22;7225;59.282;18.344;2022-10-31T01:52:14;5.40;99.90
14283;DHT22;7225;59.282;18.344;2022-10-31T01:54:48;5.40;99.90
14283;DHT22;7225;59.282;18.344;2022-10-31T01:57:18;5.40;99.90
14283;DHT22;7225;59.282;18.344;2022-10-31T01:59:50;5.30;99.90
14283;DHT22;7225;59.282;18.344;2022-10-31T02:02:23;5.30;99.90
14283;DHT22;7225;59.282;18.344;2022-10-31T02:04:53;5.30;99.90
14283;DHT22;7225;59.282;18.344;2022-10-31T02:07:27;5.30;99.90
14283;DHT22;7225;59.282;18.344;2022-10-31T02:09:57;5.40;99.90
14283;DHT22;7225;59.282;18.344;2022-10-31T02:12:27;5.40;99.90
14283;DHT22;7225;59.282;18.344;2022-10-31T02:14:55;5.50;99.90
14283;DHT22;7225;59.282;18.344;2022-10-31T02:17:24;5.40;99.90
14283;DHT22;7225;59.282;18.344;2022-10-31T02:20:02;5.40;99.90
14283;DHT22;7225;59.282;18.344;2022-10-31T02:28:07;5.40;99.90
14283;DHT22;7225;59.282;18.344;2022-10-31T02:33:44;5.40;99.90
14283;DHT22;7225;59.282;18.344;2022-10-31T02:36:28;5.50;99.90
14283;DHT22;7225;59.282;18.344;2022-10-31T02:44:49;5.50;99.90
14283;DHT22;7225;59.282;18.344;2022-10-31T02:47:27;5.50;99.90
14283;DHT22;7225;59.282;18.344;2022-10-31T02:50:01;5.60;99.90
14283;DHT22;7225;59.282;18.344;2022-10-31T02:52:34;5.60;99.90
14283;DHT22;7225;59.282;18.344;2022-10-31T02:58:22;5.70;99.90
14283;DHT22;7225;59.282;18.344;2022-10-31T03:09:44;6.00;99.90
14283;DHT22;7225;59.282;18.344;2022-10-31T03:12:29;6.00;99.90
14283;DHT22;7225;59.282;18.344;2022-10-31T03:15:25;6.00;99.90
14283;DHT22;7225;59.282;18.344;2022-10-31T03:17:56;6.00;99.90
14283;DHT22;7225;59.282;18.344;2022-10-31T03:20:39;6.00;99.90
14283;DHT22;7225;59.282;18.344;2022-10-31T03:23:11;6.10;99.90
14283;DHT22;7225;59.282;18.344;2022-10-31T03:25:43;6.20;99.90
14283;DHT22;7225;59.282;18.344;2022-10-31T03:28:12;6.20;99.90
14283;DHT22;7225;59.282;18.344;2022-10-31T03:30:43;6.20;99.90
14283;DHT22;7225;59.282;18.344;2022-10-31T03:33:16;6.20;99.90
14283;DHT22;7225;59.282;18.344;2022-10-31T03:35:47;6.20;99.90
14283;DHT22;7225;59.282;18.344;2022-10-31T03:38:18;6.30;99.90
14283;DHT22;7225;59.282;18.344;2022-10-31T03:40:51;6.40;99.90
14283;DHT22;7225;59.282;18.344;2022-10-31T03:43:26;6.50;99.90
14283;DHT22;7225;59.282;18.344;2022-10-31T03:45:57;6.40;99.90
14283;DHT22;7225;59.282;18.344;2022-10-31T03:48:26;6.40;99.90
14283;DHT22;7225;59.282;18.344;2022-10-31T03:51:03;6.30;99.90
14283;DHT22;7225;59.282;18.344;2022-10-31T03:53:52;6.40;99.90
14283;DHT22;7225;59.282;18.344;2022-10-31T03:59:02;6.40;99.90
14283;DHT22;7225;59.282;18.344;2022-10-31T04:01:33;6.40;99.90
14283;DHT22;7225;59.282;18.344;2022-10-31T04:04:04;6.50;99.90
14283;DHT22;7225;59.282;18.344;2022-10-31T04:06:35;6.60;99.90
14283;DHT22;7225;59.282;18.344;2022-10-31T04:09:05;6.60;99.90
14283;DHT22;7225;59.282;18.344;2022-10-31T04:11:37;6.70;99.90
14283;DHT22;7225;59.282;18.344;2022-10-31T04:14:09;6.80;99.90
14283;DHT22;7225;59.282;18.344;2022-10-31T04:16:41;6.80;99.90
14283;DHT22;7225;59.282;18.344;2022-10-31T04:19:11;6.90;99.90
14283;DHT22;7225;59.282;18.344;2022-10-31T04:21:40;7.00;99.90
14283;DHT22;7225;59.282;18.344;2022-10-31T04:24:10;7.00;99.90
14283;DHT22;7225;59.282;18.344;2022-10-31T04:26:38;7.10;99.90
14283;DHT22;7225;59.282;18.344;2022-10-31T04:29:06;7.10;99.90
14283;DHT22;7225;59.282;18.344;2022-10-31T04:31:34;7.20;99.90
14283;DHT22;7225;59.282;18.344;2022-10-31T04:34:03;7.20;99.90
14283;DHT22;7225;59.282;18.344;2022-10-31T04:36:31;7.30;99.90
14283;DHT22;7225;59.282;18.344;2022-10-31T04:39:01;7.30;99.90
14283;DHT22;7225;59.282;18.344;2022-10-31T04:41:29;7.40;99.90
14283;DHT22;7225;59.282;18.344;2022-10-31T04:43:57;7.50;99.90
14283;DHT22;7225;59.282;18.344;2022-10-31T04:46:27;7.60;99.90
14283;DHT22;7225;59.282;18.344;2022-10-31T04:48:55;7.70;99.90
14283;DHT22;7225;59.282;18.344;2022-10-31T04:51:25;7.70;99.90
14283;DHT22;7225;59.282;18.344;2022-10-31T04:53:53;7.80;99.90
14283;DHT22;7225;59.282;18.344;2022-10-31T04:56:22;7.90;99.90
14283;DHT22;7225;59.282;18.344;2022-10-31T04:58:52;8.00;99.90
14283;DHT22;7225;59.282;18.344;2022-10-31T05:01:20;8.00;99.90
14283;DHT22;7225;59.282;18.344;2022-10-31T05:03:48;8.00;99.90
14283;DHT22;7225;59.282;18.344;2022-10-31T05:06:16;8.10;99.90
14283;DHT22;7225;59.282;18.344;2022-10-31T05:08:46;8.10;99.90
14283;DHT22;7225;59.282;18.344;2022-10-31T05:11:14;8.20;99.90
14283;DHT22;7225;59.282;18.344;2022-10-31T05:13:42;8.20;99.90
14283;DHT22;7225;59.282;18.344;2022-10-31T05:16:10;8.30;99.90
14283;DHT22;7225;59.282;18.344;2022-10-31T05:18:39;8.40;99.90
14283;DHT22;7225;59.282;18.344;2022-10-31T05:21:08;8.40;99.90
14283;DHT22;7225;59.282;18.344;2022-10-31T05:23:37;8.50;99.90
14283;DHT22;7225;59.282;18.344;2022-10-31T05:26:06;8.60;99.90
14283;DHT22;7225;59.282;18.344;2022-10-31T05:28:35;8.60;99.90
14283;DHT22;7225;59.282;18.344;2022-10-31T05:31:03;8.60;99.90
14283;DHT22;7225;59.282;18.344;2022-10-31T05:33:31;8.70;99.90
14283;DHT22;7225;59.282;18.344;2022-10-31T05:36:00;8.80;99.90
14283;DHT22;7225;59.282;18.344;2022-10-31T05:38:30;8.90;99.90
14283;DHT22;7225;59.282;18.344;2022-10-31T05:40:58;8.90;99.90
14283;DHT22;7225;59.282;18.344;2022-10-31T05:43:28;8.90;99.90
14283;DHT22;7225;59.282;18.344;2022-10-31T05:45:56;8.90;99.90
14283;DHT22;7225;59.282;18.344;2022-10-31T05:48:25;9.00;99.90
14283;DHT22;7225;59.282;18.344;2022-10-31T05:50:53;9.00;99.90
14283;DHT22;7225;59.282;18.344;2022-10-31T05:53:22;9.00;99.90
14283;DHT22;7225;59.282;18.344;2022-10-31T05:55:50;9.10;99.90
14283;DHT22;7225;59.282;18.344;2022-10-31T05:58:19;9.10;99.90
14283;DHT22;7225;59.282;18.344;2022-10-31T06:00:47;9.10;99.90
14283;DHT22;7225;59.282;18.344;2022-10-31T06:03:16;9.20;99.90
14283;DHT22;7225;59.282;18.344;2022-10-31T06:05:45;9.20;99.90
14283;DHT22;7225;59.282;18.344;2022-10-31T06:08:20;9.20;99.90
14283;DHT22;7225;59.282;18.344;2022-10-31T06:10:48;9.30;99.90
14283;DHT22;7225;59.282;18.344;2022-10-31T06:13:17;9.30;99.90
14283;DHT22;7225;59.282;18.344;2022-10-31T06:15:46;9.30;99.90
14283;DHT22;7225;59.282;18.344;2022-10-31T06:18:15;9.30;99.90
14283;DHT22;7225;59.282;18.344;2022-10-31T06:20:44;9.40;99.90
14283;DHT22;7225;59.282;18.344;2022-10-31T06:23:13;9.40;99.90
14283;DHT22;7225;59.282;18.344;2022-10-31T06:25:41;9.50;99.90
14283;DHT22;7225;59.282;18.344;2022-10-31T06:28:10;9.50;99.90
14283;DHT22;7225;59.282;18.344;2022-10-31T06:30:39;9.50;99.90
14283;DHT22;7225;59.282;18.344;2022-10-31T06:33:07;9.50;99.90
14283;DHT22;7225;59.282;18.344;2022-10-31T06:35:36;9.50;99.90
14283;DHT22;7225;59.282;18.344;2022-10-31T06:38:04;9.50;99.90
14283;DHT22;7225;59.282;18.344;2022-10-31T06:40:32;9.60;99.90
14283;DHT22;7225;59.282;18.344;2022-10-31T06:43:03;9.60;99.90
14283;DHT22;7225;59.282;18.344;2022-10-31T06:45:31;9.60;99.90
14283;DHT22;7225;59.282;18.344;2022-10-31T06:48:00;9.60;99.90
14283;DHT22;7225;59.282;18.344;2022-10-31T06:50:45;9.70;99.90
14283;DHT22;7225;59.282;18.344;2022-10-31T06:53:14;9.70;99.90
14283;DHT22;7225;59.282;18.344;2022-10-31T06:55:43;9.70;99.90
14283;DHT22;7225;59.282;18.344;2022-10-31T06:58:11;9.70;99.90
14283;DHT22;7225;59.282;18.344;2022-10-31T07:00:40;9.70;99.90
14283;DHT22;7225;59.282;18.344;2022-10-31T07:03:13;9.80;99.90
14283;DHT22;7225;59.282;18.344;2022-10-31T07:05:42;9.80;99.90
14283;DHT22;7225;59.282;18.344;2022-10-31T07:08:13;9.80;99.90
14283;DHT22;7225;59.282;18.344;2022-10-31T07:10:42;9.90;99.90
14283;DHT22;7225;59.282;18.344;2022-10-31T07:13:13;9.90;99.90
14283;DHT22;7225;59.282;18.344;2022-10-31T07:15:43;9.90;99.90
14283;DHT22;7225;59.282;18.344;2022-10-31T07:18:12;9.90;99.90
14283;DHT22;7225;59.282;18.344;2022-10-31T07:20:40;9.90;99.90
14283;DHT22;7225;59.282;18.344;2022-10-31T07:23:10;10.00;99.90
14283;DHT22;7225;59.282;18.344;2022-10-31T07:25:40;10.00;99.90
14283;DHT22;7225;59.282;18.344;2022-10-31T07:28:11;10.00;99.90
14283;DHT22;7225;59.282;18.344;2022-10-31T07:30:40;10.00;99.90
14283;DHT22;7225;59.282;18.344;2022-10-31T07:33:08;10.10;99.90
14283;DHT22;7225;59.282;18.344;2022-10-31T07:35:37;10.10;99.90
14283;DHT22;7225;59.282;18.344;2022-10-31T07:38:11;10.10;99.90
14283;DHT22;7225;59.282;18.344;2022-10-31T07:40:41;10.10;99.90
14283;DHT22;7225;59.282;18.344;2022-10-31T07:43:12;10.10;99.90
14283;DHT22;7225;59.282;18.344;2022-10-31T07:45:41;10.10;99.90
14283;DHT22;7225;59.282;18.344;2022-10-31T07:48:09;10.10;99.90
14283;DHT22;7225;59.282;18.344;2022-10-31T07:50:38;10.20;99.90
14283;DHT22;7225;59.282;18.344;2022-10-31T07:53:11;10.20;99.90
14283;DHT22;7225;59.282;18.344;2022-10-31T07:55:40;10.20;99.90
14283;DHT22;7225;59.282;18.344;2022-10-31T07:58:16;10.20;99.90
14283;DHT22;7225;59.282;18.344;2022-10-31T08:00:47;10.20;99.90
14283;DHT22;7225;59.282;18.344;2022-10-31T08:03:17;10.30;99.90
14283;DHT22;7225;59.282;18.344;2022-10-31T08:05:46;10.30;99.90
14283;DHT22;7225;59.282;18.344;2022-10-31T08:08:15;10.30;99.90
14283;DHT22;7225;59.282;18.344;2022-10-31T08:10:44;10.30;99.90
14283;DHT22;7225;59.282;18.344;2022-10-31T08:13:13;10.30;99.90
14283;DHT22;7225;59.282;18.344;2022-10-31T08:15:43;10.40;99.90
14283;DHT22;7225;59.282;18.344;2022-10-31T08:18:14;10.40;99.90
14283;DHT22;7225;59.282;18.344;2022-10-31T08:20:43;10.40;99.90
14283;DHT22;7225;59.282;18.344;2022-10-31T08:23:12;10.40;99.90
14283;DHT22;7225;59.282;18.344;2022-10-31T08:25:41;10.40;99.90
14283;DHT22;7225;59.282;18.344;2022-10-31T08:28:10;10.40;99.90
14283;DHT22;7225;59.282;18.344;2022-10-31T08:30:39;10.50;99.90
14283;DHT22;7225;59.282;18.344;2022-10-31T08:33:13;10.50;99.90
14283;DHT22;7225;59.282;18.344;2022-10-31T08:35:42;10.50;99.90
14283;DHT22;7225;59.282;18.344;2022-10-31T08:38:11;10.50;99.90
14283;DHT22;7225;59.282;18.344;2022-10-31T08:40:40;10.50;99.90
14283;DHT22;7225;59.282;18.344;2022-10-31T08:43:12;10.50;99.90
14283;DHT22;7225;59.282;18.344;2022-10-31T08:45:43;10.60;99.90
14283;DHT22;7225;59.282;18.344;2022-10-31T08:48:14;10.60;99.90
14283;DHT22;7225;59.282;18.344;2022-10-31T08:50:43;10.60;99.90
14283;DHT22;7225;59.282;18.344;2022-10-31T08:53:14;10.60;99.90
14283;DHT22;7225;59.282;18.344;2022-10-31T08:55:43;10.60;99.90
14283;DHT22;7225;59.282;18.344;2022-10-31T08:58:18;10.60;99.90
14283;DHT22;7225;59.282;18.344;2022-10-31T09:00:52;10.70;99.90
14283;DHT22;7225;59.282;18.344;2022-10-31T09:03:24;10.70;99.90
14283;DHT22;7225;59.282;18.344;2022-10-31T09:05:58;10.70;99.90
14283;DHT22;7225;59.282;18.344;2022-10-31T09:08:26;10.70;99.90
14283;DHT22;7225;59.282;18.344;2022-10-31T09:10:57;10.70;99.90
14283;DHT22;7225;59.282;18.344;2022-10-31T09:13:25;10.70;99.90
14283;DHT22;7225;59.282;18.344;2022-10-31T09:15:56;10.70;99.90
14283;DHT22;7225;59.282;18.344;2022-10-31T09:18:26;10.80;99.90
14283;DHT22;7225;59.282;18.344;2022-10-31T09:20:58;10.70;99.90
14283;DHT22;7225;59.282;18.344;2022-10-31T09:23:28;10.80;99.90
14283;DHT22;7225;59.282;18.344;2022-10-31T09:25:59;10.80;99.90
14283;DHT22;7225;59.282;18.344;2022-10-31T09:28:28;10.80;99.90
14283;DHT22;7225;59.282;18.344;2022-10-31T09:30:56;10.80;99.90
14283;DHT22;7225;59.282;18.344;2022-10-31T09:33:25;10.80;99.90
14283;DHT22;7225;59.282;18.344;2022-10-31T09:35:53;10.80;99.90
14283;DHT22;7225;59.282;18.344;2022-10-31T09:38:22;10.80;99.90
14283;DHT22;7225;59.282;18.344;2022-10-31T09:49:38;10.90;99.90
14283;DHT22;7225;59.282;18.344;2022-10-31T09:52:31;10.90;99.90
14283;DHT22;7225;59.282;18.344;2022-10-31T09:55:41;11.00;99.90
14283;DHT22;7225;59.282;18.344;2022-10-31T09:58:18;11.00;99.90
14283;DHT22;7225;59.282;18.344;2022-10-31T10:00:48;11.00;99.90
14283;DHT22;7225;59.282;18.344;2022-10-31T10:03:29;11.10;99.90
14283;DHT22;7225;59.282;18.344;2022-10-31T10:06:19;11.10;99.90
14283;DHT22;7225;59.282;18.344;2022-10-31T10:08:49;11.10;99.90
14283;DHT22;7225;59.282;18.344;2022-10-31T10:11:43;11.10;99.90
14283;DHT22;7225;59.282;18.344;2022-10-31T10:17:24;11.10;99.90
14283;DHT22;7225;59.282;18.344;2022-10-31T10:23:11;11.20;99.90
14283;DHT22;7225;59.282;18.344;2022-10-31T10:25:41;11.20;99.90
14283;DHT22;7225;59.282;18.344;2022-10-31T10:28:21;11.20;99.90
14283;DHT22;7225;59.282;18.344;2022-10-31T10:31:10;11.20;99.90
14283;DHT22;7225;59.282;18.344;2022-10-31T10:33:50;11.20;99.90
14283;DHT22;7225;59.282;18.344;2022-10-31T10:41:47;11.30;99.90
14283;DHT22;7225;59.282;18.344;2022-10-31T10:44:39;11.30;99.90
14283;DHT22;7225;59.282;18.344;2022-10-31T10:47:31;11.30;99.90
14283;DHT22;7225;59.282;18.344;2022-10-31T10:50:17;11.40;99.90
14283;DHT22;7225;59.282;18.344;2022-10-31T10:53:23;11.40;99.90
14283;DHT22;7225;59.282;18.344;2022-10-31T10:59:14;11.40;99.90
14283;DHT22;7225;59.282;18.344;2022-10-31T11:01:42;11.40;99.90
14283;DHT22;7225;59.282;18.344;2022-10-31T11:04:33;11.50;99.90
14283;DHT22;7225;59.282;18.344;2022-10-31T11:07:06;11.50;99.90
14283;DHT22;7225;59.282;18.344;2022-10-31T11:09:35;11.50;99.90
14283;DHT22;7225;59.282;18.344;2022-10-31T11:12:30;11.50;99.90
14283;DHT22;7225;59.282;18.344;2022-10-31T11:14:59;11.50;99.90
14283;DHT22;7225;59.282;18.344;2022-10-31T11:20:20;11.60;99.90
14283;DHT22;7225;59.282;18.344;2022-10-31T11:23:04;11.60;99.90
14283;DHT22;7225;59.282;18.344;2022-10-31T11:25:32;11.60;99.90
14283;DHT22;7225;59.282;18.344;2022-10-31T11:28:05;11.70;99.90
14283;DHT22;7225;59.282;18.344;2022-10-31T11:30:42;11.60;99.90
14283;DHT22;7225;59.282;18.344;2022-10-31T11:33:33;11.70;99.90
14283;DHT22;7225;59.282;18.344;2022-10-31T11:36:26;11.70;99.90
14283;DHT22;7225;59.282;18.344;2022-10-31T11:38:53;11.70;99.90
14283;DHT22;7225;59.282;18.344;2022-10-31T11:41:37;11.80;99.90
14283;DHT22;7225;59.282;18.344;2022-10-31T11:44:23;11.80;99.90
14283;DHT22;7225;59.282;18.344;2022-10-31T11:46:56;11.80;99.90
14283;DHT22;7225;59.282;18.344;2022-10-31T11:49:36;11.80;99.90
14283;DHT22;7225;59.282;18.344;2022-10-31T11:52:12;11.90;99.90
14283;DHT22;7225;59.282;18.344;2022-10-31T11:59:58;11.90;99.90
14283;DHT22;7225;59.282;18.344;2022-10-31T12:02:27;12.00;99.90
14283;DHT22;7225;59.282;18.344;2022-10-31T12:05:10;12.30;99.90
14283;DHT22;7225;59.282;18.344;2022-10-31T12:07:39;12.30;99.90
14283;DHT22;7225;59.282;18.344;2022-10-31T12:10:11;12.40;99.90
14283;DHT22;7225;59.282;18.344;2022-10-31T12:15:37;12.60;99.90
14283;DHT22;7225;59.282;18.344;2022-10-31T12:24:23;13.00;99.90
14283;DHT22;7225;59.282;18.344;2022-10-31T12:27:10;13.20;99.90
14283;DHT22;7225;59.282;18.344;2022-10-31T12:49:04;13.80;99.90
14283;DHT22;7225;59.282;18.344;2022-10-31T12:51:51;13.70;99.90
14283;DHT22;7225;59.282;18.344;2022-10-31T13:00:10;13.90;99.90
14283;DHT22;7225;59.282;18.344;2022-10-31T13:05:58;14.00;99.90
14283;DHT22;7225;59.282;18.344;2022-10-31T13:11:12;14.00;99.90
14283;DHT22;7225;59.282;18.344;2022-10-31T13:16:39;13.90;99.90
14283;DHT22;7225;59.282;18.344;2022-10-31T13:19:14;13.90;99.90
14283;DHT22;7225;59.282;18.344;2022-10-31T13:22:09;13.90;99.90
14283;DHT22;7225;59.282;18.344;2022-10-31T13:24:59;13.90;99.90
14283;DHT22;7225;59.282;18.344;2022-10-31T13:30:41;13.80;99.90
14283;DHT22;7225;59.282;18.344;2022-10-31T13:33:19;13.70;99.90
14283;DHT22;7225;59.282;18.344;2022-10-31T13:36:10;13.70;99.90
14283;DHT22;7225;59.282;18.344;2022-10-31T13:46:47;13.50;99.90
14283;DHT22;7225;59.282;18.344;2022-10-31T13:54:38;13.40;99.90
14283;DHT22;7225;59.282;18.344;2022-10-31T13:59:49;13.40;99.90
14283;DHT22;7225;59.282;18.344;2022-10-31T14:02:21;13.40;99.90
14283;DHT22;7225;59.282;18.344;2022-10-31T14:04:56;13.40;99.90
14283;DHT22;7225;59.282;18.344;2022-10-31T14:07:25;13.40;99.90
14283;DHT22;7225;59.282;18.344;2022-10-31T14:09:58;13.30;99.90
14283;DHT22;7225;59.282;18.344;2022-10-31T14:12:45;13.30;99.90
14283;DHT22;7225;59.282;18.344;2022-10-31T14:17:48;13.30;99.90
14283;DHT22;7225;59.282;18.344;2022-10-31T14:22:46;13.30;99.90
14283;DHT22;7225;59.282;18.344;2022-10-31T14:25:35;13.20;99.90
14283;DHT22;7225;59.282;18.344;2022-10-31T14:28:20;13.20;99.90
14283;DHT22;7225;59.282;18.344;2022-10-31T14:30:57;13.20;99.90
14283;DHT22;7225;59.282;18.344;2022-10-31T14:33:28;13.20;99.90
14283;DHT22;7225;59.282;18.344;2022-10-31T14:36:37;13.20;99.90
14283;DHT22;7225;59.282;18.344;2022-10-31T14:39:26;13.20;99.90
14283;DHT22;7225;59.282;18.344;2022-10-31T14:45:09;13.20;99.90
14283;DHT22;7225;59.282;18.344;2022-10-31T14:51:02;13.10;99.90
14283;DHT22;7225;59.282;18.344;2022-10-31T14:56:14;13.10;99.90
14283;DHT22;7225;59.282;18.344;2022-10-31T14:58:47;13.00;99.90
14283;DHT22;7225;59.282;18.344;2022-10-31T15:01:35;13.00;99.90
14283;DHT22;7225;59.282;18.344;2022-10-31T15:04:26;13.00;99.90
14283;DHT22;7225;59.282;18.344;2022-10-31T15:07:06;13.00;99.90
14283;DHT22;7225;59.282;18.344;2022-10-31T15:09:38;13.00;99.90
14283;DHT22;7225;59.282;18.344;2022-10-31T15:12:26;13.00;99.90
14283;DHT22;7225;59.282;18.344;2022-10-31T15:14:55;12.90;99.90
14283;DHT22;7225;59.282;18.344;2022-10-31T15:17:25;12.90;99.90
14283;DHT22;7225;59.282;18.344;2022-10-31T15:19:54;12.90;99.90
14283;DHT22;7225;59.282;18.344;2022-10-31T15:22:26;12.80;99.90
14283;DHT22;7225;59.282;18.344;2022-10-31T15:24:56;12.80;99.90
14283;DHT22;7225;59.282;18.344;2022-10-31T15:27:25;12.70;99.90
14283;DHT22;7225;59.282;18.344;2022-10-31T15:29:55;12.70;99.90
14283;DHT22;7225;59.282;18.344;2022-10-31T15:32:26;12.60;99.90
14283;DHT22;7225;59.282;18.344;2022-10-31T15:34:56;12.60;99.90
14283;DHT22;7225;59.282;18.344;2022-10-31T15:37:26;12.60;99.90
14283;DHT22;7225;59.282;18.344;2022-10-31T15:39:55;12.50;99.90
14283;DHT22;7225;59.282;18.344;2022-10-31T15:42:39;12.50;99.90
14283;DHT22;7225;59.282;18.344;2022-10-31T15:48:01;12.30;99.90
14283;DHT22;7225;59.282;18.344;2022-10-31T15:50:41;12.30;99.90
14283;DHT22;7225;59.282;18.344;2022-10-31T15:53:35;12.30;99.90
14283;DHT22;7225;59.282;18.344;2022-10-31T15:56:05;12.20;99.90
14283;DHT22;7225;59.282;18.344;2022-10-31T15:58:44;12.20;99.90
14283;DHT22;7225;59.282;18.344;2022-10-31T16:01:27;12.10;99.90
14283;DHT22;7225;59.282;18.344;2022-10-31T16:06:34;12.00;99.90
14283;DHT22;7225;59.282;18.344;2022-10-31T16:09:18;11.90;99.90
14283;DHT22;7225;59.282;18.344;2022-10-31T16:11:51;11.90;99.90
14283;DHT22;7225;59.282;18.344;2022-10-31T16:14:23;11.80;99.90
14283;DHT22;7225;59.282;18.344;2022-10-31T16:16:56;11.80;99.90
14283;DHT22;7225;59.282;18.344;2022-10-31T16:19:30;11.80;99.90
14283;DHT22;7225;59.282;18.344;2022-10-31T16:22:09;11.70;99.90
14283;DHT22;7225;59.282;18.344;2022-10-31T16:27:18;11.70;99.90
14283;DHT22;7225;59.282;18.344;2022-10-31T16:29:47;11.60;99.90
14283;DHT22;7225;59.282;18.344;2022-10-31T16:34:59;11.50;99.90
14283;DHT22;7225;59.282;18.344;2022-10-31T16:37:28;11.40;99.90
14283;DHT22;7225;59.282;18.344;2022-10-31T16:39:58;11.50;99.90
14283;DHT22;7225;59.282;18.344;2022-10-31T16:42:26;11.40;99.90
14283;DHT22;7225;59.282;18.344;2022-10-31T16:44:55;11.30;99.90
14283;DHT22;7225;59.282;18.344;2022-10-31T16:47:24;11.30;99.90
14283;DHT22;7225;59.282;18.344;2022-10-31T16:49:55;11.20;99.90
14283;DHT22;7225;59.282;18.344;2022-10-31T16:52:28;11.20;99.90
14283;DHT22;7225;59.282;18.344;2022-10-31T16:55:14;11.20;99.90
14283;DHT22;7225;59.282;18.344;2022-10-31T16:57:45;11.10;99.90
14283;DHT22;7225;59.282;18.344;2022-10-31T17:00:19;11.10;99.90
14283;DHT22;7225;59.282;18.344;2022-10-31T17:02:48;11.10;99.90
14283;DHT22;7225;59.282;18.344;2022-10-31T17:05:19;11.10;99.90
14283;DHT22;7225;59.282;18.344;2022-10-31T17:07:47;11.10;99.90
14283;DHT22;7225;59.282;18.344;2022-10-31T17:10:15;11.20;99.90
14283;DHT22;7225;59.282;18.344;2022-10-31T17:12:46;11.20;99.90
14283;DHT22;7225;59.282;18.344;2022-10-31T17:15:21;11.20;99.90
14283;DHT22;7225;59.282;18.344;2022-10-31T17:17:49;11.20;99.90
14283;DHT22;7225;59.282;18.344;2022-10-31T17:20:24;11.10;99.90
14283;DHT22;7225;59.282;18.344;2022-10-31T17:22:53;11.10;99.90
14283;DHT22;7225;59.282;18.344;2022-10-31T17:25:24;11.10;99.90
14283;DHT22;7225;59.282;18.344;2022-10-31T17:27:53;11.10;99.90
14283;DHT22;7225;59.282;18.344;2022-10-31T17:30:22;11.10;99.90
14283;DHT22;7225;59.282;18.344;2022-10-31T17:32:50;11.10;99.90
14283;DHT22;7225;59.282;18.344;2022-10-31T17:35:20;11.10;99.90
14283;DHT22;7225;59.282;18.344;2022-10-31T17:37:48;11.10;99.90
14283;DHT22;7225;59.282;18.344;2022-10-31T17:40:19;11.10;99.90
14283;DHT22;7225;59.282;18.344;2022-10-31T17:42:51;11.10;99.90
14283;DHT22;7225;59.282;18.344;2022-10-31T17:45:20;11.00;99.90
14283;DHT22;7225;59.282;18.344;2022-10-31T17:47:51;11.00;99.90
14283;DHT22;7225;59.282;18.344;2022-10-31T17:50:21;11.00;99.90
14283;DHT22;7225;59.282;18.344;2022-10-31T17:52:51;11.00;99.90
14283;DHT22;7225;59.282;18.344;2022-10-31T17:55:18;11.00;99.90
14283;DHT22;7225;59.282;18.344;2022-10-31T17:57:47;11.10;99.90
14283;DHT22;7225;59.282;18.344;2022-10-31T18:00:18;11.00;99.90
14283;DHT22;7225;59.282;18.344;2022-10-31T18:02:48;11.00;99.90
14283;DHT22;7225;59.282;18.344;2022-10-31T18:05:16;11.10;99.90
14283;DHT22;7225;59.282;18.344;2022-10-31T18:07:48;11.00;99.90
14283;DHT22;7225;59.282;18.344;2022-10-31T18:10:18;11.00;99.90
14283;DHT22;7225;59.282;18.344;2022-10-31T18:12:46;11.00;99.90
14283;DHT22;7225;59.282;18.344;2022-10-31T18:15:16;11.00;99.90
14283;DHT22;7225;59.282;18.344;2022-10-31T18:17:44;11.00;99.90
14283;DHT22;7225;59.282;18.344;2022-10-31T18:20:13;11.00;99.90
14283;DHT22;7225;59.282;18.344;2022-10-31T18:22:41;11.00;99.90
14283;DHT22;7225;59.282;18.344;2022-10-31T18:25:10;11.00;99.90
14283;DHT22;7225;59.282;18.344;2022-10-31T18:27:38;11.00;99.90
14283;DHT22;7225;59.282;18.344;2022-10-31T18:30:06;11.00;99.90
14283;DHT22;7225;59.282;18.344;2022-10-31T18:32:35;11.00;99.90
14283;DHT22;7225;59.282;18.344;2022-10-31T18:35:03;11.00;99.90
14283;DHT22;7225;59.282;18.344;2022-10-31T18:37:32;11.00;99.90
14283;DHT22;7225;59.282;18.344;2022-10-31T18:40:00;11.00;99.90
14283;DHT22;7225;59.282;18.344;2022-10-31T18:42:28;11.00;99.90